createdAt,value
2022-10-31T00:01:22.744Z,97838.59
2022-10-31T00:04:26.946Z,97836.28
2022-10-31T00:07:29.754Z,97836.28
2022-10-31T00:10:32.642Z,97837.91
2022-10-31T00:13:35.602Z,97842.03
2022-10-31T00:16:38.785Z,97846.84
2022-10-31T00:19:42.989Z,97849.97
2022-10-31T00:22:45.818Z,97852.16
2022-10-31T00:25:48.666Z,97847.69
2022-10-31T00:28:52.079Z,97848.72
2022-10-31T00:31:55.145Z,97847.53
2022-10-31T00:34:59.330Z,97844.22
2022-10-31T00:38:02.309Z,97854.72
2022-10-31T00:41:05.310Z,97856.56
2022-10-31T00:44:08.126Z,97856.19
2022-10-31T00:47:11.000Z,97859.53
2022-10-31T00:50:16.321Z,97854.44
2022-10-31T00:53:19.223Z,97861.16
2022-10-31T00:56:22.696Z,97855.47
2022-10-31T00:59:25.529Z,97849.50
2022-10-31T01:02:28.497Z,97850.88
2022-10-31T01:05:32.808Z,97844.13
2022-10-31T01:08:36.517Z,97847.88
2022-10-31T01:11:39.693Z,97838.13
2022-10-31T01:14:46.433Z,97846.13
2022-10-31T01:17:49.840Z,97841.22
2022-10-31T01:21:01.662Z,97843.56
2022-10-31T01:24:04.812Z,97847.59
2022-10-31T01:27:07.644Z,97852.22
2022-10-31T01:30:11.410Z,97856.88
2022-10-31T01:33:14.237Z,97851.94
2022-10-31T01:36:21.960Z,97860.84
2022-10-31T01:39:27.119Z,97852.66
2022-10-31T01:42:30.042Z,97850.75
2022-10-31T01:45:33.059Z,97850.28
2022-10-31T01:48:35.997Z,97857.41
2022-10-31T01:51:44.772Z,97861.84
2022-10-31T01:54:52.474Z,97861.22
2022-10-31T01:57:59.948Z,97858.94
2022-10-31T02:01:07.704Z,97859.13
2022-10-31T02:04:11.963Z,97865.56
2022-10-31T02:07:22.024Z,97853.44
2022-10-31T02:10:25.421Z,97854.91
2022-10-31T02:13:30.616Z,97856.75
2022-10-31T02:16:34.200Z,97856.50
2022-10-31T02:19:48.676Z,97855.22
2022-10-31T02:23:20.622Z,97852.00
2022-10-31T02:26:43.710Z,97850.56
2022-10-31T02:30:06.850Z,97850.56
2022-10-31T02:33:21.169Z,97847.91
2022-10-31T02:36:29.094Z,97855.47
2022-10-31T02:39:39.600Z,97834.78
2022-10-31T02:42:51.243Z,97839.91
2022-10-31T02:46:04.173Z,97843.00
2022-10-31T02:49:18.570Z,97842.19
2022-10-31T02:52:22.978Z,97847.03
2022-10-31T02:55:51.398Z,97848.22
2022-10-31T02:58:58.246Z,97845.34
2022-10-31T03:02:25.245Z,97840.41
2022-10-31T03:05:42.100Z,97840.78
2022-10-31T03:08:52.246Z,97841.44
2022-10-31T03:12:00.968Z,97843.69
2022-10-31T03:15:14.599Z,97846.19
2022-10-31T03:18:23.380Z,97856.09
2022-10-31T03:21:32.435Z,97852.59
2022-10-31T03:24:39.483Z,97853.56
2022-10-31T03:27:45.683Z,97857.06
2022-10-31T03:30:51.656Z,97860.84
2022-10-31T03:33:58.287Z,97864.78
2022-10-31T03:37:06.016Z,97857.06
2022-10-31T03:40:13.480Z,97872.69
2022-10-31T03:46:26.253Z,97866.09
2022-10-31T03:49:33.351Z,97865.03
2022-10-31T03:52:43.581Z,97868.00
2022-10-31T03:55:52.664Z,97871.63
2022-10-31T03:59:00.840Z,97871.28
2022-10-31T04:02:09.841Z,97880.19
2022-10-31T04:05:17.463Z,97878.38
2022-10-31T04:08:26.563Z,97870.66
2022-10-31T04:11:35.090Z,97877.44
2022-10-31T04:15:10.750Z,97876.47
2022-10-31T04:18:16.033Z,97883.19
2022-10-31T04:21:18.981Z,97875.66
2022-10-31T04:24:24.188Z,97881.94
2022-10-31T04:27:27.091Z,97878.66
2022-10-31T04:30:29.888Z,97872.88
2022-10-31T04:33:32.841Z,97869.91
2022-10-31T04:36:35.650Z,97873.38
2022-10-31T04:39:39.949Z,97869.13
2022-10-31T04:43:01.736Z,97879.50
2022-10-31T04:46:06.174Z,97873.38
2022-10-31T04:49:10.089Z,97875.38
2022-10-31T04:52:13.314Z,97871.75
2022-10-31T04:55:18.323Z,97873.06
2022-10-31T04:58:47.044Z,97874.53
2022-10-31T05:01:50.071Z,97875.81
2022-10-31T05:04:57.712Z,97873.03
2022-10-31T05:08:00.679Z,97871.75
2022-10-31T05:11:07.408Z,97870.41
2022-10-31T05:14:10.537Z,97874.53
2022-10-31T05:17:52.284Z,97868.47
2022-10-31T05:21:13.973Z,97882.63
2022-10-31T05:24:24.144Z,97883.44
2022-10-31T05:27:28.521Z,97877.38
2022-10-31T05:30:33.924Z,97882.63
2022-10-31T05:33:36.915Z,97879.34
2022-10-31T05:36:39.725Z,97874.41
2022-10-31T05:39:51.557Z,97881.50
2022-10-31T05:42:57.985Z,97884.47
2022-10-31T05:46:01.131Z,97889.69
2022-10-31T05:49:23.731Z,97889.53
2022-10-31T05:52:44.996Z,97893.84
2022-10-31T05:56:01.729Z,97898.63
2022-10-31T05:59:06.648Z,97896.28
2022-10-31T06:02:09.938Z,97901.06
2022-10-31T06:05:50.791Z,97901.41
2022-10-31T06:08:57.648Z,97900.75
2022-10-31T06:12:01.977Z,97904.47
2022-10-31T06:15:26.291Z,97915.00
2022-10-31T06:18:30.871Z,97909.09
2022-10-31T06:21:33.775Z,97909.25
2022-10-31T06:24:36.593Z,97901.69
2022-10-31T06:27:44.939Z,97911.56
2022-10-31T06:30:52.216Z,97915.03
2022-10-31T06:33:55.621Z,97914.56
2022-10-31T06:36:58.544Z,97920.16
2022-10-31T06:40:02.510Z,97918.69
2022-10-31T06:43:12.226Z,97919.66
2022-10-31T06:46:17.704Z,97924.75
2022-10-31T06:49:35.260Z,97927.72
2022-10-31T06:52:40.951Z,97930.34
2022-10-31T06:55:44.925Z,97929.34
2022-10-31T06:58:48.906Z,97931.34
2022-10-31T07:01:55.169Z,97941.19
2022-10-31T07:04:58.522Z,97944.31
2022-10-31T07:08:03.619Z,97944.47
2022-10-31T07:11:07.539Z,97953.53
2022-10-31T07:14:10.793Z,97947.44
2022-10-31T07:17:15.210Z,97955.19
2022-10-31T07:20:20.675Z,97960.94
2022-10-31T07:23:24.061Z,97962.56
2022-10-31T07:26:48.552Z,97970.81
2022-10-31T07:29:51.608Z,97962.22
2022-10-31T07:32:56.423Z,97961.88
2022-10-31T07:36:02.158Z,97962.69
2022-10-31T07:39:07.117Z,97958.69
2022-10-31T07:42:11.732Z,97962.47
2022-10-31T07:45:21.272Z,97967.03
2022-10-31T07:48:44.480Z,97961.72
2022-10-31T07:52:06.232Z,97967.63
2022-10-31T07:55:41.745Z,97964.97
2022-10-31T07:58:44.732Z,97962.25
2022-10-31T08:01:47.736Z,97958.59
2022-10-31T08:05:10.326Z,97963.50
2022-10-31T08:08:38.365Z,97955.75
2022-10-31T08:11:43.190Z,97955.97
2022-10-31T08:14:46.280Z,97962.50
2022-10-31T08:17:51.173Z,97954.63
2022-10-31T08:20:56.417Z,97950.47
2022-10-31T08:23:59.514Z,97950.56
2022-10-31T08:27:03.731Z,97943.22
2022-10-31T08:30:07.996Z,97944.72
2022-10-31T08:33:15.224Z,97936.84
2022-10-31T08:36:57.724Z,97939.03
2022-10-31T08:40:14.181Z,97930.09
2022-10-31T08:43:18.951Z,97930.31
2022-10-31T08:46:21.894Z,97926.19
2022-10-31T08:49:24.814Z,97923.91
2022-10-31T08:52:58.882Z,97912.63
2022-10-31T08:55:52.773Z,97917.84
2022-10-31T08:59:00.912Z,97909.13
2022-10-31T09:02:18.054Z,97904.53
2022-10-31T09:05:21.006Z,97899.22
2022-10-31T09:08:26.688Z,97888.25
2022-10-31T09:11:29.550Z,97896.81
2022-10-31T09:14:55.000Z,97888.13
2022-10-31T09:18:05.657Z,97882.91
2022-10-31T09:21:18.841Z,97885.41
2022-10-31T09:24:24.332Z,97893.47
2022-10-31T09:27:27.155Z,97902.13
2022-10-31T09:30:34.770Z,97902.78
2022-10-31T09:33:38.169Z,97901.16
2022-10-31T09:37:13.311Z,97894.06
2022-10-31T09:40:18.007Z,97892.94
2022-10-31T09:43:31.275Z,97903.38
2022-10-31T09:46:45.363Z,97913.66
2022-10-31T09:50:08.847Z,97909.81
2022-10-31T09:53:17.601Z,97914.13
2022-10-31T09:56:23.850Z,97916.63
2022-10-31T09:59:32.190Z,97919.06
2022-10-31T10:02:41.893Z,97921.91
2022-10-31T10:05:52.352Z,97929.28
2022-10-31T10:10:23.937Z,97927.44
2022-10-31T10:14:06.428Z,97926.00
2022-10-31T10:17:19.530Z,97914.50
2022-10-31T10:20:33.879Z,97914.72
2022-10-31T10:23:49.029Z,97913.22
2022-10-31T10:27:01.746Z,97902.16
2022-10-31T10:30:15.136Z,97904.03
2022-10-31T10:33:22.913Z,97898.03
2022-10-31T10:36:36.897Z,97893.91
2022-10-31T10:39:44.176Z,97885.91
2022-10-31T10:43:12.423Z,97891.88
2022-10-31T10:46:52.184Z,97887.53
2022-10-31T10:49:55.065Z,97878.91
2022-10-31T10:53:07.956Z,97875.97
2022-10-31T10:56:17.886Z,97880.59
2022-10-31T10:59:23.374Z,97873.63
2022-10-31T11:02:31.578Z,97879.38
2022-10-31T11:05:38.992Z,97874.44
2022-10-31T11:08:42.016Z,97865.38
2022-10-31T11:11:44.972Z,97869.25
2022-10-31T11:14:51.571Z,97864.69
2022-10-31T11:17:58.288Z,97862.94
2022-10-31T11:21:03.737Z,97864.09
2022-10-31T11:24:18.479Z,97850.94
2022-10-31T11:27:24.148Z,97848.16
2022-10-31T11:30:27.231Z,97837.84
2022-10-31T11:33:35.092Z,97832.72
2022-10-31T11:36:41.382Z,97830.63
2022-10-31T11:39:50.090Z,97812.16
2022-10-31T11:42:54.687Z,97817.81
2022-10-31T11:45:59.006Z,97809.31
2022-10-31T11:49:03.977Z,97808.13
2022-10-31T11:52:10.648Z,97802.34
2022-10-31T11:55:19.808Z,97799.84
2022-10-31T11:58:24.817Z,97801.63
2022-10-31T12:01:29.885Z,97806.81
2022-10-31T12:04:43.788Z,97799.78
2022-10-31T12:07:46.734Z,97792.09
2022-10-31T12:11:00.153Z,97793.03
2022-10-31T12:14:13.564Z,97792.22
2022-10-31T12:17:19.193Z,97786.50
2022-10-31T12:20:32.742Z,97778.94
2022-10-31T12:23:46.677Z,97775.81
2022-10-31T12:26:58.993Z,97765.75
2022-10-31T12:30:21.697Z,97760.44
2022-10-31T12:33:44.631Z,97757.75
2022-10-31T12:36:57.297Z,97753.13
2022-10-31T12:40:12.761Z,97752.09
2022-10-31T12:43:31.043Z,97751.28
2022-10-31T12:46:55.492Z,97746.75
2022-10-31T12:50:12.816Z,97742.25
2022-10-31T12:53:28.837Z,97745.00
2022-10-31T12:56:43.072Z,97737.41
2022-10-31T12:59:50.184Z,97733.56
2022-10-31T13:02:56.934Z,97726.16
2022-10-31T13:06:04.598Z,97724.53
2022-10-31T13:09:14.362Z,97721.97
2022-10-31T13:12:21.352Z,97716.88
2022-10-31T13:15:26.594Z,97723.47
2022-10-31T13:18:33.246Z,97727.41
2022-10-31T13:21:42.091Z,97717.78
2022-10-31T13:24:54.223Z,97721.09
2022-10-31T13:28:01.623Z,97716.22
2022-10-31T13:31:04.710Z,97707.47
2022-10-31T13:34:16.895Z,97707.56
2022-10-31T13:37:31.983Z,97702.53
2022-10-31T13:40:48.897Z,97694.19
2022-10-31T13:44:02.877Z,97702.47
2022-10-31T13:47:06.335Z,97696.59
2022-10-31T13:50:23.657Z,97693.59
2022-10-31T13:53:39.196Z,97691.38
2022-10-31T13:56:43.519Z,97685.75
2022-10-31T13:59:51.585Z,97676.78
2022-10-31T14:02:58.678Z,97661.44
2022-10-31T14:06:02.027Z,97653.38
2022-10-31T14:09:05.548Z,97639.88
2022-10-31T14:12:16.016Z,97632.56
2022-10-31T14:15:23.657Z,97627.50
2022-10-31T14:18:32.577Z,97617.63
2022-10-31T14:21:40.839Z,97611.53
2022-10-31T14:24:43.861Z,97595.50
2022-10-31T14:27:49.030Z,97587.94
2022-10-31T14:30:56.036Z,97574.22
2022-10-31T14:33:59.087Z,97576.13
2022-10-31T14:37:16.380Z,97572.88
2022-10-31T14:40:35.514Z,97558.19
2022-10-31T14:44:26.935Z,97552.88
2022-10-31T14:47:40.574Z,97554.94
2022-10-31T14:50:49.800Z,97545.03
2022-10-31T14:53:55.137Z,97542.34
2022-10-31T14:57:04.900Z,97533.22
2022-10-31T15:00:17.625Z,97525.16
2022-10-31T15:03:27.129Z,97526.19
2022-10-31T15:06:39.994Z,97519.56
2022-10-31T15:09:44.519Z,97507.03
2022-10-31T15:12:47.663Z,97504.16
2022-10-31T15:15:54.279Z,97504.84
2022-10-31T15:19:00.646Z,97497.75
2022-10-31T15:22:03.574Z,97496.84
2022-10-31T15:25:08.049Z,97498.47
2022-10-31T15:28:18.595Z,97494.97
2022-10-31T15:31:22.828Z,97493.88
2022-10-31T15:34:31.913Z,97499.91
2022-10-31T15:37:34.766Z,97490.84
2022-10-31T15:40:38.795Z,97486.19
2022-10-31T15:43:42.168Z,97483.72
2022-10-31T15:46:46.464Z,97483.31
2022-10-31T15:49:52.474Z,97481.59
2022-10-31T15:52:55.768Z,97484.66
2022-10-31T15:56:02.632Z,97484.16
2022-10-31T15:59:05.551Z,97491.41
2022-10-31T16:02:13.320Z,97478.50
2022-10-31T16:05:21.137Z,97482.56
2022-10-31T16:08:34.405Z,97491.78
2022-10-31T16:11:39.126Z,97485.47
2022-10-31T16:14:42.416Z,97487.94
2022-10-31T16:17:49.413Z,97484.09
2022-10-31T16:20:56.217Z,97484.72
2022-10-31T16:24:05.961Z,97478.19
2022-10-31T16:27:19.961Z,97475.38
2022-10-31T16:30:42.745Z,97474.13
2022-10-31T16:33:51.597Z,97468.22
2022-10-31T16:36:54.646Z,97467.22
2022-10-31T16:39:57.601Z,97466.00
2022-10-31T16:43:02.488Z,97464.38
2022-10-31T16:46:06.174Z,97466.84
2022-10-31T16:49:13.146Z,97468.88
2022-10-31T16:52:23.759Z,97479.72
2022-10-31T16:55:36.117Z,97479.91
2022-10-31T16:58:39.128Z,97475.44
2022-10-31T17:01:43.387Z,97478.50
2022-10-31T17:04:49.665Z,97474.59
2022-10-31T17:07:55.303Z,97479.91
2022-10-31T17:11:00.161Z,97486.03
2022-10-31T17:14:03.747Z,97481.34
2022-10-31T17:17:06.649Z,97485.25
2022-10-31T17:20:19.457Z,97492.13
2022-10-31T17:23:22.376Z,97489.28
2022-10-31T17:26:25.161Z,97492.56
2022-10-31T17:29:28.039Z,97488.88
2022-10-31T17:32:30.953Z,97486.00
2022-10-31T17:35:35.187Z,97488.69
2022-10-31T17:38:39.290Z,97490.69
2022-10-31T17:41:42.223Z,97492.97
2022-10-31T17:44:45.168Z,97489.28
2022-10-31T17:47:49.450Z,97489.47
2022-10-31T17:50:53.924Z,97487.88
2022-10-31T17:53:56.804Z,97471.16
2022-10-31T17:56:59.769Z,97454.66
2022-10-31T18:00:03.350Z,97456.97
2022-10-31T18:03:08.725Z,97483.66
2022-10-31T18:06:16.673Z,97498.34
2022-10-31T18:09:19.756Z,97514.91
2022-10-31T18:12:22.841Z,97505.34
2022-10-31T18:15:25.840Z,97504.91
2022-10-31T18:18:28.926Z,97507.56
2022-10-31T18:21:33.401Z,97509.81
2022-10-31T18:24:36.387Z,97518.31
2022-10-31T18:27:39.290Z,97524.91
2022-10-31T18:30:42.765Z,97530.91
2022-10-31T18:33:46.033Z,97541.50
2022-10-31T18:36:50.781Z,97555.31
2022-10-31T18:39:53.753Z,97560.25
2022-10-31T18:42:56.785Z,97554.16
2022-10-31T18:46:02.344Z,97544.66
2022-10-31T18:49:07.261Z,97536.09
2022-10-31T18:52:11.667Z,97526.94
2022-10-31T18:55:14.808Z,97520.63
2022-10-31T18:58:17.814Z,97515.91
2022-10-31T19:01:22.338Z,97509.19
2022-10-31T19:04:25.491Z,97498.38
2022-10-31T19:07:29.886Z,97499.16
2022-10-31T19:10:35.810Z,97493.28
2022-10-31T19:13:39.728Z,97476.66
2022-10-31T19:16:43.534Z,97471.72
2022-10-31T19:19:46.514Z,97458.50
2022-10-31T19:22:52.874Z,97466.84
2022-10-31T19:26:02.861Z,97474.00
2022-10-31T19:29:06.027Z,97460.88
2022-10-31T19:32:09.232Z,97454.34
2022-10-31T19:35:12.078Z,97454.75
2022-10-31T19:38:16.536Z,97462.06
2022-10-31T19:41:21.401Z,97469.59
2022-10-31T19:44:24.447Z,97460.22
2022-10-31T19:47:27.680Z,97447.34
2022-10-31T19:50:30.893Z,97444.31
2022-10-31T19:53:35.894Z,97455.41
2022-10-31T19:56:41.770Z,97450.25
2022-10-31T19:59:44.804Z,97440.56
2022-10-31T20:02:48.028Z,97437.81
2022-10-31T20:05:54.265Z,97443.19
2022-10-31T20:08:59.619Z,97439.81
2022-10-31T20:12:02.763Z,97431.91
2022-10-31T20:15:09.542Z,97429.91
2022-10-31T20:18:12.486Z,97422.63
2022-10-31T20:21:17.358Z,97424.22
2022-10-31T20:24:21.807Z,97414.75
2022-10-31T20:27:24.859Z,97416.03
2022-10-31T20:30:27.971Z,97415.06
2022-10-31T20:33:30.908Z,97423.75
2022-10-31T20:36:34.636Z,97431.00
2022-10-31T20:39:39.011Z,97434.69
2022-10-31T20:42:41.878Z,97437.41
2022-10-31T20:45:44.890Z,97430.09
2022-10-31T20:48:48.751Z,97440.41
2022-10-31T20:51:56.942Z,97434.81
2022-10-31T20:55:01.310Z,97433.47
2022-10-31T20:58:04.295Z,97419.66
2022-10-31T21:01:12.039Z,97425.00
2022-10-31T21:04:15.161Z,97429.13
2022-10-31T21:07:18.262Z,97420.50
2022-10-31T21:10:22.533Z,97422.78
2022-10-31T21:13:26.149Z,97424.50
2022-10-31T21:16:31.083Z,97432.25
2022-10-31T21:19:36.125Z,97433.66
2022-10-31T21:22:40.351Z,97441.31
2022-10-31T21:25:44.857Z,97441.56
2022-10-31T21:28:48.012Z,97441.22
2022-10-31T21:31:51.185Z,97437.84
2022-10-31T21:34:54.132Z,97443.97
2022-10-31T21:37:58.495Z,97431.50
2022-10-31T21:41:04.712Z,97434.06
2022-10-31T21:44:07.677Z,97425.97
2022-10-31T21:47:10.597Z,97421.09
2022-10-31T21:50:13.458Z,97424.31
2022-10-31T21:53:33.927Z,97419.47
2022-10-31T21:56:38.278Z,97428.09
2022-10-31T21:59:45.709Z,97422.28
2022-10-31T22:02:48.595Z,97437.66
2022-10-31T22:05:53.114Z,97452.09
2022-10-31T22:08:59.609Z,97452.19
2022-10-31T22:12:06.670Z,97459.34
2022-10-31T22:15:10.237Z,97459.25
2022-10-31T22:18:13.207Z,97455.72
2022-10-31T22:21:18.673Z,97451.41
2022-10-31T22:24:21.560Z,97459.13
2022-10-31T22:27:25.803Z,97455.28
2022-10-31T22:30:28.613Z,97445.22
2022-10-31T22:33:31.533Z,97452.84
2022-10-31T22:36:34.478Z,97456.63
2022-10-31T22:39:37.322Z,97466.22
2022-10-31T22:42:41.621Z,97470.34
2022-10-31T22:45:44.513Z,97474.00
2022-10-31T22:48:49.333Z,97455.28
2022-10-31T22:51:53.060Z,97456.28
2022-10-31T22:54:58.413Z,97441.09
2022-10-31T22:58:03.913Z,97441.81
2022-10-31T23:01:12.031Z,97438.03
2022-10-31T23:04:16.135Z,97442.31
2022-10-31T23:07:23.108Z,97434.13
2022-10-31T23:10:33.575Z,97435.03
2022-10-31T23:13:55.315Z,97439.03
2022-10-31T23:16:58.288Z,97431.44
2022-10-31T23:20:01.207Z,97434.50
2022-10-31T23:23:04.604Z,97424.84
2022-10-31T23:26:25.614Z,97439.63
2022-10-31T23:29:29.810Z,97428.97
2022-10-31T23:32:35.274Z,97420.00
2022-10-31T23:35:38.172Z,97426.03
2022-10-31T23:38:40.988Z,97421.00
2022-10-31T23:41:43.953Z,97413.19
2022-10-31T23:44:48.382Z,97419.75
2022-10-31T23:47:51.270Z,97422.84
2022-10-31T23:50:54.342Z,97411.72
2022-10-31T23:53:57.303Z,97415.38
2022-10-31T23:57:00.226Z,97419.31
